createdAt,value
2022-09-28T00:00:17.546Z,98871.94
2022-09-28T00:02:44.207Z,98828.03
2022-09-28T00:05:10.793Z,98830.44
2022-09-28T00:07:37.386Z,98846.59
2022-09-28T00:10:06.012Z,98832.31
2022-09-28T00:12:32.648Z,98849.94
2022-09-28T00:14:59.177Z,98835.78
2022-09-28T00:17:25.818Z,98852.09
2022-09-28T00:19:52.431Z,98842.75
2022-09-28T00:22:19.086Z,98863.59
2022-09-28T00:24:45.753Z,98806.25
2022-09-28T00:27:13.741Z,98867.06
2022-09-28T00:29:40.273Z,98857.34
2022-09-28T00:32:10.255Z,98836.16
2022-09-28T00:34:38.974Z,98862.63
2022-09-28T00:37:06.892Z,98850.28
2022-09-28T00:39:33.470Z,98855.03
2022-09-28T00:42:00.068Z,98830.56
2022-09-28T00:44:41.363Z,98844.56
2022-09-28T00:47:19.833Z,98860.31
2022-09-28T00:49:50.557Z,98861.13
2022-09-28T00:52:22.636Z,98869.84
2022-09-28T00:54:51.116Z,98858.69
2022-09-28T00:57:18.052Z,98846.84
2022-09-28T00:59:46.552Z,98838.94
2022-09-28T01:02:13.132Z,98853.59
2022-09-28T01:04:39.987Z,98842.53
2022-09-28T01:07:08.786Z,98832.84
2022-09-28T01:09:38.289Z,98848.28
2022-09-28T01:12:05.301Z,98848.13
2022-09-28T01:14:32.627Z,98825.59
2022-09-28T01:17:07.800Z,98824.09
2022-09-28T01:20:26.538Z,98838.41
2022-09-28T01:23:19.782Z,98845.66
2022-09-28T01:25:53.551Z,98841.38
2022-09-28T01:28:25.499Z,98807.72
2022-09-28T01:31:09.123Z,98839.09
2022-09-28T01:33:41.803Z,98840.22
2022-09-28T01:36:13.344Z,98828.56
2022-09-28T01:38:46.306Z,98834.34
2022-09-28T01:41:14.376Z,98826.59
2022-09-28T01:43:47.751Z,98829.22
2022-09-28T01:46:18.458Z,98827.38
2022-09-28T01:48:51.374Z,98819.16
2022-09-28T01:51:24.989Z,98828.03
2022-09-28T01:53:57.065Z,98810.66
2022-09-28T01:56:29.449Z,98837.94
2022-09-28T01:59:05.197Z,98823.44
2022-09-28T02:01:38.967Z,98831.03
2022-09-28T02:04:12.010Z,98828.56
2022-09-28T02:06:43.102Z,98828.56
2022-09-28T02:09:15.628Z,98803.59
2022-09-28T02:11:49.339Z,98778.63
2022-09-28T02:14:18.487Z,98818.03
2022-09-28T02:16:49.302Z,98807.84
2022-09-28T02:19:18.955Z,98824.28
2022-09-28T02:21:53.981Z,98828.72
2022-09-28T02:24:28.179Z,98809.31
2022-09-28T02:26:58.969Z,98823.44
2022-09-28T02:29:33.722Z,98802.44
2022-09-28T02:32:01.105Z,98825.09
2022-09-28T02:34:28.112Z,98797.84
2022-09-28T02:36:54.755Z,98829.53
2022-09-28T02:39:22.022Z,98837.28
2022-09-28T02:42:01.186Z,98831.19
2022-09-28T02:44:50.808Z,98838.91
2022-09-28T02:47:31.307Z,98838.09
2022-09-28T02:50:12.446Z,98814.94
2022-09-28T02:52:56.373Z,98817.22
2022-09-28T02:55:36.495Z,98819.34
2022-09-28T02:58:16.614Z,98841.19
2022-09-28T03:00:52.904Z,98828.38
2022-09-28T03:03:27.715Z,98830.34
2022-09-28T03:06:02.150Z,98843.16
2022-09-28T03:08:39.387Z,98841.38
2022-09-28T03:11:14.643Z,98815.91
2022-09-28T03:13:42.865Z,98846.31
2022-09-28T03:16:13.877Z,98803.91
2022-09-28T03:18:42.169Z,98840.88
2022-09-28T03:21:11.176Z,98830.00
2022-09-28T03:23:38.222Z,98830.00
2022-09-28T03:26:04.998Z,98820.16
2022-09-28T03:28:31.643Z,98835.91
2022-09-28T03:30:58.190Z,98840.38
2022-09-28T03:33:26.458Z,98835.91
2022-09-28T03:35:53.646Z,98815.72
2022-09-28T03:38:20.524Z,98804.72
2022-09-28T03:40:52.805Z,98839.19
2022-09-28T03:43:20.030Z,98839.19
2022-09-28T03:45:51.856Z,98833.44
2022-09-28T03:48:24.483Z,98824.88
2022-09-28T03:50:56.061Z,98803.88
2022-09-28T03:53:23.733Z,98837.06
2022-09-28T03:55:50.652Z,98841.34
2022-09-28T03:58:18.979Z,98840.97
2022-09-28T04:00:45.779Z,98830.31
2022-09-28T04:03:12.410Z,98822.09
2022-09-28T04:05:39.157Z,98834.59
2022-09-28T04:08:07.040Z,98833.44
2022-09-28T04:10:33.587Z,98815.19
2022-09-28T04:13:00.356Z,98840.16
2022-09-28T04:15:27.165Z,98837.72
2022-09-28T04:17:53.671Z,98843.16
2022-09-28T04:20:39.401Z,98846.41
2022-09-28T04:23:11.982Z,98842.66
2022-09-28T04:25:38.640Z,98845.78
2022-09-28T04:28:05.376Z,98839.84
2022-09-28T04:30:32.029Z,98843.16
2022-09-28T04:32:58.647Z,98839.69
2022-09-28T04:35:27.990Z,98843.66
2022-09-28T04:37:54.530Z,98819.81
2022-09-28T04:40:22.974Z,98837.88
2022-09-28T04:42:53.451Z,98843.97
2022-09-28T04:45:20.000Z,98823.44
2022-09-28T04:47:46.921Z,98761.88
2022-09-28T04:50:30.198Z,98855.53
2022-09-28T04:53:06.301Z,98821.66
2022-09-28T04:55:34.334Z,98849.59
2022-09-28T04:58:01.088Z,98852.72
2022-09-28T05:00:27.871Z,98855.84
2022-09-28T05:03:06.345Z,98863.91
2022-09-28T05:05:58.978Z,98858.97
2022-09-28T05:08:41.743Z,98864.22
2022-09-28T05:11:11.976Z,98863.06
2022-09-28T05:13:41.252Z,98855.03
2022-09-28T05:16:09.232Z,98875.44
2022-09-28T05:18:49.616Z,98867.88
2022-09-28T05:21:16.401Z,98788.66
2022-09-28T05:23:47.029Z,98868.22
2022-09-28T05:26:15.332Z,98867.22
2022-09-28T05:28:42.616Z,98863.09
2022-09-28T05:31:27.836Z,98831.06
2022-09-28T05:34:17.109Z,98872.00
2022-09-28T05:36:45.546Z,98863.75
2022-09-28T05:39:12.129Z,98871.00
2022-09-28T05:41:40.450Z,98870.38
2022-09-28T05:44:07.042Z,98868.22
2022-09-28T05:46:35.084Z,98868.56
2022-09-28T05:49:02.037Z,98871.84
2022-09-28T05:51:28.801Z,98878.25
2022-09-28T05:53:55.909Z,98859.69
2022-09-28T05:56:25.071Z,98857.88
2022-09-28T05:58:53.846Z,98852.59
2022-09-28T06:01:22.902Z,98860.34
2022-09-28T06:03:49.546Z,98850.66
2022-09-28T06:06:16.901Z,98870.38
2022-09-28T06:08:45.817Z,98840.28
2022-09-28T06:11:31.446Z,98877.59
2022-09-28T06:14:03.120Z,98875.44
2022-09-28T06:16:31.507Z,98853.91
2022-09-28T06:18:58.159Z,98881.53
2022-09-28T06:21:44.202Z,98882.19
2022-09-28T06:24:10.903Z,98883.84
2022-09-28T06:26:37.741Z,98867.38
2022-09-28T06:29:06.670Z,98885.97
2022-09-28T06:31:33.431Z,98889.09
2022-09-28T06:34:00.401Z,98854.41
2022-09-28T06:36:28.627Z,98897.94
2022-09-28T06:38:55.213Z,98899.28
2022-09-28T06:41:22.843Z,98905.69
2022-09-28T06:43:49.774Z,98905.16
2022-09-28T06:46:36.464Z,98863.91
2022-09-28T06:49:21.958Z,98906.31
2022-09-28T06:52:11.469Z,98903.88
2022-09-28T06:54:56.539Z,98908.63
2022-09-28T06:57:29.873Z,98904.22
2022-09-28T06:59:56.758Z,98913.25
2022-09-28T07:02:24.763Z,98916.69
2022-09-28T07:05:14.176Z,98923.13
2022-09-28T07:07:58.800Z,98923.44
2022-09-28T07:10:52.981Z,98894.00
2022-09-28T07:16:15.150Z,98919.00
2022-09-28T07:18:43.117Z,98941.69
2022-09-28T07:21:17.857Z,98939.69
2022-09-28T07:23:53.959Z,98945.28
2022-09-28T07:26:24.721Z,98948.28
2022-09-28T07:28:57.291Z,98945.13
2022-09-28T07:31:31.858Z,98953.50
2022-09-28T07:34:18.594Z,98954.47
2022-09-28T07:37:03.940Z,98942.00
2022-09-28T07:39:30.534Z,98938.06
2022-09-28T07:42:02.590Z,98958.97
2022-09-28T07:44:30.650Z,98965.16
2022-09-28T07:46:58.009Z,98968.31
2022-09-28T07:49:39.013Z,98976.38
2022-09-28T07:52:28.506Z,98972.91
2022-09-28T07:55:21.388Z,98985.38
2022-09-28T07:57:59.192Z,98989.31
2022-09-28T08:00:38.787Z,98975.16
2022-09-28T08:03:05.470Z,98978.13
2022-09-28T08:05:34.584Z,98990.91
2022-09-28T08:08:02.342Z,98997.50
2022-09-28T08:10:29.618Z,98984.50
2022-09-28T08:13:17.208Z,98997.53
2022-09-28T08:16:19.830Z,98997.69
2022-09-28T08:18:57.908Z,98987.34
2022-09-28T08:21:27.610Z,99004.63
2022-09-28T08:23:54.401Z,98994.84
2022-09-28T08:26:21.050Z,99001.22
2022-09-28T08:28:47.693Z,99012.56
2022-09-28T08:31:40.161Z,99011.19
2022-09-28T08:34:25.407Z,98996.44
2022-09-28T08:37:19.341Z,99013.16
2022-09-28T08:39:45.874Z,98993.69
2022-09-28T08:42:32.030Z,99001.56
2022-09-28T08:45:18.513Z,99016.31
2022-09-28T08:48:17.527Z,99021.03
2022-09-28T08:51:17.719Z,99017.63
2022-09-28T08:54:06.888Z,99016.41
2022-09-28T08:56:50.183Z,99018.19
2022-09-28T08:59:19.809Z,99026.22
2022-09-28T09:01:58.108Z,99030.97
2022-09-28T09:04:27.254Z,99016.19
2022-09-28T09:07:31.646Z,99041.44
2022-09-28T09:10:18.426Z,99041.75
2022-09-28T09:12:58.795Z,99021.78
2022-09-28T09:15:35.759Z,99048.19
2022-09-28T09:18:20.632Z,99037.00
2022-09-28T09:21:10.860Z,99046.84
2022-09-28T09:23:53.791Z,99010.47
2022-09-28T09:26:34.987Z,99034.00
2022-09-28T09:29:28.487Z,99050.25
2022-09-28T09:32:16.532Z,99056.53
2022-09-28T09:35:07.443Z,99046.38
2022-09-28T09:38:09.103Z,99052.03
2022-09-28T09:41:06.459Z,99053.13
2022-09-28T09:44:11.133Z,99058.81
2022-09-28T09:46:54.232Z,99067.88
2022-09-28T09:49:36.143Z,99057.59
2022-09-28T09:52:09.494Z,99060.69
2022-09-28T09:54:40.442Z,99069.59
2022-09-28T09:57:15.312Z,99046.41
2022-09-28T09:59:50.320Z,99065.44
2022-09-28T10:02:27.726Z,99048.94
2022-09-28T10:05:19.773Z,99067.00
2022-09-28T10:07:52.603Z,99035.75
2022-09-28T10:10:26.465Z,99042.09
2022-09-28T10:12:57.117Z,99043.34
2022-09-28T10:15:27.974Z,99063.38
2022-09-28T10:18:18.759Z,99061.28
2022-09-28T10:21:23.525Z,99053.59
2022-09-28T10:23:56.438Z,98951.63
2022-09-28T10:26:28.803Z,99027.78
2022-09-28T10:29:00.607Z,99024.31
2022-09-28T10:31:37.702Z,99022.09
2022-09-28T10:34:10.560Z,99059.50
2022-09-28T10:36:47.240Z,99055.38
2022-09-28T10:39:36.023Z,99070.94
2022-09-28T10:42:07.482Z,99060.25
2022-09-28T10:44:43.565Z,99069.16
2022-09-28T10:47:27.476Z,99066.88
2022-09-28T10:49:55.889Z,99067.78
2022-09-28T10:52:33.282Z,99071.66
2022-09-28T10:55:01.455Z,99047.28
2022-09-28T10:57:32.598Z,99077.47
2022-09-28T11:00:06.149Z,99067.88
2022-09-28T11:02:41.566Z,99071.16
2022-09-28T11:05:21.983Z,99072.53
2022-09-28T11:07:49.476Z,99078.91
2022-09-28T11:10:22.476Z,99063.72
2022-09-28T11:12:51.901Z,99057.13
2022-09-28T11:15:22.135Z,99016.56
2022-09-28T11:17:52.899Z,99063.53
2022-09-28T11:20:31.995Z,99073.47
2022-09-28T11:23:16.323Z,99068.16
2022-09-28T11:25:43.819Z,99082.59
2022-09-28T11:28:23.168Z,99069.06
2022-09-28T11:30:52.573Z,99081.75
2022-09-28T11:33:32.817Z,99074.78
2022-09-28T11:36:31.776Z,99073.28
2022-09-28T11:39:09.205Z,99075.63
2022-09-28T11:42:16.504Z,99071.31
2022-09-28T11:44:46.759Z,99069.81
2022-09-28T11:47:37.425Z,99044.56
2022-09-28T11:50:14.338Z,99072.81
2022-09-28T11:52:49.326Z,99074.13
2022-09-28T11:55:24.138Z,99050.00
2022-09-28T11:58:00.363Z,99059.66
2022-09-28T12:00:29.498Z,99055.53
2022-09-28T12:03:06.814Z,99066.59
2022-09-28T12:05:39.734Z,99080.28
2022-09-28T12:08:13.268Z,99077.63
2022-09-28T12:11:00.132Z,99079.25
2022-09-28T12:13:49.379Z,99077.59
2022-09-28T12:16:46.873Z,99075.72
2022-09-28T12:19:16.801Z,99071.38
2022-09-28T12:21:48.954Z,99074.78
2022-09-28T12:24:19.802Z,99051.22
2022-09-28T12:26:52.094Z,99069.19
2022-09-28T12:29:22.706Z,99079.22
2022-09-28T12:32:00.841Z,99076.38
2022-09-28T12:34:27.508Z,99067.72
2022-09-28T12:37:08.839Z,99070.78
2022-09-28T12:39:58.122Z,99068.13
2022-09-28T12:42:40.740Z,99069.97
2022-09-28T12:45:23.456Z,99069.81
2022-09-28T12:48:16.460Z,99069.03
2022-09-28T12:51:00.562Z,99064.78
2022-09-28T12:53:45.642Z,99065.78
2022-09-28T12:56:26.050Z,99066.91
2022-09-28T12:59:03.671Z,99054.81
2022-09-28T13:01:50.137Z,99048.03
2022-09-28T13:04:43.447Z,99071.44
2022-09-28T13:07:19.249Z,99067.06
2022-09-28T13:09:58.469Z,99045.84
2022-09-28T13:12:36.764Z,99071.59
2022-09-28T13:15:37.520Z,99070.25
2022-09-28T13:18:12.413Z,99068.31
2022-09-28T13:21:07.043Z,99070.47
2022-09-28T13:23:37.634Z,99067.44
2022-09-28T13:26:14.963Z,99068.06
2022-09-28T13:28:44.235Z,99064.59
2022-09-28T13:31:12.248Z,99067.53
2022-09-28T13:33:43.042Z,99024.22
2022-09-28T13:36:37.314Z,99064.47
2022-09-28T13:39:03.951Z,99064.97
2022-09-28T13:41:36.076Z,99057.72
2022-09-28T13:44:33.736Z,99055.06
2022-09-28T13:47:26.086Z,99065.13
2022-09-28T13:50:03.574Z,99063.94
2022-09-28T13:52:43.312Z,99060.03
2022-09-28T13:55:22.286Z,99071.97
2022-09-28T13:57:55.485Z,99064.00
2022-09-28T14:00:28.289Z,99067.31
2022-09-28T14:02:59.103Z,99062.88
2022-09-28T14:05:44.029Z,99072.09
2022-09-28T14:08:27.049Z,99065.44
2022-09-28T14:10:55.742Z,99073.91
2022-09-28T14:14:01.880Z,99078.50
2022-09-28T14:16:30.620Z,99079.22
2022-09-28T14:19:02.777Z,99060.78
2022-09-28T14:21:55.427Z,99066.91
2022-09-28T14:24:31.688Z,99076.25
2022-09-28T14:27:18.232Z,99065.88
2022-09-28T14:29:50.693Z,99062.78
2022-09-28T14:32:23.249Z,99073.31
2022-09-28T14:34:56.827Z,99064.06
2022-09-28T14:37:28.707Z,99060.94
2022-09-28T14:39:55.343Z,99074.19
2022-09-28T14:42:24.495Z,99076.69
2022-09-28T14:45:33.309Z,99076.50
2022-09-28T14:48:17.843Z,99075.13
2022-09-28T14:50:44.657Z,99066.50
2022-09-28T14:53:13.550Z,99079.28
2022-09-28T14:55:47.087Z,99077.91
2022-09-28T14:58:18.978Z,99060.19
2022-09-28T15:00:49.972Z,99076.03
2022-09-28T15:03:17.960Z,99067.97
2022-09-28T15:05:46.022Z,99077.41
2022-09-28T15:08:13.155Z,99073.56
2022-09-28T15:10:45.735Z,99052.31
2022-09-28T15:13:22.207Z,99064.44
2022-09-28T15:15:53.657Z,99071.19
2022-09-28T15:18:47.723Z,99071.72
2022-09-28T15:21:14.389Z,99073.94
2022-09-28T15:23:42.647Z,99082.25
2022-09-28T15:26:22.182Z,99079.66
2022-09-28T15:28:48.830Z,99078.78
2022-09-28T15:31:19.826Z,99069.69
2022-09-28T15:33:46.776Z,99080.53
2022-09-28T15:36:19.618Z,99082.66
2022-09-28T15:38:57.067Z,99084.03
2022-09-28T15:41:25.245Z,99082.03
2022-09-28T15:44:07.821Z,99086.78
2022-09-28T15:46:39.439Z,99069.03
2022-09-28T15:49:07.423Z,99071.72
2022-09-28T15:51:51.043Z,99083.06
2022-09-28T15:54:23.750Z,99086.38
2022-09-28T15:56:51.817Z,99091.19
2022-09-28T15:59:25.801Z,99093.78
2022-09-28T16:02:14.820Z,99077.59
2022-09-28T16:04:58.525Z,99101.28
2022-09-28T16:07:33.801Z,99081.50
2022-09-28T16:10:27.468Z,99059.19
2022-09-28T16:12:57.131Z,99096.25
2022-09-28T16:15:27.628Z,99093.78
2022-09-28T16:17:58.096Z,99101.63
2022-09-28T16:20:29.912Z,99091.34
2022-09-28T16:22:59.490Z,99102.31
2022-09-28T16:25:27.214Z,99099.56
2022-09-28T16:27:55.573Z,99121.59
2022-09-28T16:30:24.501Z,99132.38
2022-09-28T16:32:54.099Z,99127.69
2022-09-28T16:35:25.485Z,99129.91
2022-09-28T16:38:11.291Z,99142.66
2022-09-28T16:40:42.265Z,99142.53
2022-09-28T16:43:16.974Z,99151.16
2022-09-28T16:45:43.620Z,99144.69
2022-09-28T16:48:14.107Z,99165.88
2022-09-28T16:50:42.012Z,99113.25
2022-09-28T16:53:14.103Z,99165.00
2022-09-28T16:55:41.443Z,99139.53
2022-09-28T16:58:08.397Z,99162.75
2022-09-28T17:00:35.130Z,99169.19
2022-09-28T17:03:01.684Z,99169.09
2022-09-28T17:05:28.262Z,99174.47
2022-09-28T17:08:00.183Z,99170.06
2022-09-28T17:10:45.080Z,99176.41
2022-09-28T17:13:23.001Z,99182.63
2022-09-28T17:15:49.729Z,99185.00
2022-09-28T17:18:18.090Z,99180.69
2022-09-28T17:20:48.053Z,99187.69
2022-09-28T17:23:16.268Z,99189.22
2022-09-28T17:25:43.677Z,99170.94
2022-09-28T17:28:19.323Z,99074.88
2022-09-28T17:30:45.993Z,99173.91
2022-09-28T17:33:12.524Z,99189.63
2022-09-28T17:35:39.907Z,99190.81
2022-09-28T17:38:06.502Z,99205.16
2022-09-28T17:40:34.552Z,99208.81
2022-09-28T17:43:01.181Z,99208.97
2022-09-28T17:45:30.278Z,99201.91
2022-09-28T17:47:58.650Z,99218.38
2022-09-28T17:50:27.292Z,99218.41
2022-09-28T17:52:54.757Z,99218.16
2022-09-28T17:55:23.402Z,99228.72
2022-09-28T17:57:51.298Z,99228.38
2022-09-28T18:00:18.583Z,99228.06
2022-09-28T18:02:45.409Z,99229.88
2022-09-28T18:05:12.631Z,99204.06
2022-09-28T18:07:39.158Z,99235.53
2022-09-28T18:10:06.539Z,99227.50
2022-09-28T18:12:34.152Z,99210.56
2022-09-28T18:15:02.132Z,99238.91
2022-09-28T18:17:28.747Z,99230.47
2022-09-28T18:19:55.362Z,99243.34
2022-09-28T18:22:22.007Z,99242.53
2022-09-28T18:24:48.799Z,99240.06
2022-09-28T18:27:15.414Z,99245.50
2022-09-28T18:29:44.477Z,99241.38
2022-09-28T18:32:12.342Z,99243.38
2022-09-28T18:34:38.988Z,99248.97
2022-09-28T18:37:05.874Z,99234.84
2022-09-28T18:39:34.503Z,99248.66
2022-09-28T18:42:01.036Z,99249.84
2022-09-28T18:44:27.764Z,99240.91
2022-09-28T18:46:54.327Z,99249.16
2022-09-28T18:49:22.890Z,99245.03
2022-09-28T18:51:49.910Z,99217.22
2022-09-28T18:54:16.942Z,99260.56
2022-09-28T18:56:43.488Z,99266.00
2022-09-28T18:59:12.324Z,99234.03
2022-09-28T19:01:39.993Z,99256.63
2022-09-28T19:04:08.483Z,99255.44
2022-09-28T19:06:40.569Z,99264.38
2022-09-28T19:09:08.274Z,99243.78
2022-09-28T19:11:35.100Z,99257.94
2022-09-28T19:14:02.135Z,99217.75
2022-09-28T19:16:30.161Z,99263.72
2022-09-28T19:18:57.691Z,99251.69
2022-09-28T19:21:24.716Z,99248.72
2022-09-28T19:23:52.759Z,99268.50
2022-09-28T19:26:22.365Z,99218.53
2022-09-28T19:28:49.561Z,99250.03
2022-09-28T19:31:17.061Z,99261.41
2022-09-28T19:33:43.618Z,99266.03
2022-09-28T19:36:12.679Z,99265.53
2022-09-28T19:38:40.321Z,99261.56
2022-09-28T19:41:12.686Z,99243.09
2022-09-28T19:43:39.485Z,99272.75
2022-09-28T19:46:06.765Z,99269.47
2022-09-28T19:48:34.396Z,99237.47
2022-09-28T19:51:02.745Z,99266.00
2022-09-28T19:53:31.760Z,99274.75
2022-09-28T19:55:59.858Z,99281.16
2022-09-28T19:58:32.030Z,99280.00
2022-09-28T20:00:58.672Z,99282.94
2022-09-28T20:03:25.586Z,99262.97
2022-09-28T20:05:56.692Z,99249.47
2022-09-28T20:08:23.320Z,99281.94
2022-09-28T20:10:50.042Z,99277.31
2022-09-28T20:13:16.647Z,99296.59
2022-09-28T20:15:44.815Z,99289.69
2022-09-28T20:18:11.508Z,99249.09
2022-09-28T20:20:38.404Z,99285.53
2022-09-28T20:23:05.206Z,99287.34
2022-09-28T20:25:31.757Z,99285.22
2022-09-28T20:27:58.425Z,99296.41
2022-09-28T20:30:25.062Z,99297.41
2022-09-28T20:32:53.023Z,99296.59
2022-09-28T20:35:32.272Z,99295.91
2022-09-28T20:37:59.745Z,99289.31
2022-09-28T20:40:26.339Z,99286.31
2022-09-28T20:42:53.608Z,99305.44
2022-09-28T20:45:20.209Z,99298.03
2022-09-28T20:47:46.798Z,99301.63
2022-09-28T20:50:14.941Z,99281.34
2022-09-28T20:52:41.729Z,99297.16
2022-09-28T20:55:08.708Z,99285.78
2022-09-28T20:57:35.349Z,99274.19
2022-09-28T21:00:01.895Z,99305.19
2022-09-28T21:02:28.842Z,99302.72
2022-09-28T21:04:55.366Z,99305.69
2022-09-28T21:07:23.327Z,99311.09
2022-09-28T21:09:49.856Z,99307.94
2022-09-28T21:12:16.613Z,99304.50
2022-09-28T21:14:43.151Z,99310.41
2022-09-28T21:17:09.801Z,99315.00
2022-09-28T21:19:36.383Z,99293.38
2022-09-28T21:22:03.004Z,99306.75
2022-09-28T21:24:30.995Z,99313.97
2022-09-28T21:26:57.620Z,99304.56
2022-09-28T21:29:24.109Z,99305.56
2022-09-28T21:31:50.894Z,99301.59
2022-09-28T21:34:19.773Z,99301.91
2022-09-28T21:36:47.501Z,99301.09
2022-09-28T21:39:14.372Z,99302.75
2022-09-28T21:41:42.317Z,99298.44
2022-09-28T21:44:09.164Z,99295.97
2022-09-28T21:46:36.559Z,99265.75
2022-09-28T21:49:05.441Z,99273.31
2022-09-28T21:51:32.431Z,99297.78
2022-09-28T21:53:59.234Z,99290.84
2022-09-28T21:56:26.650Z,99302.22
2022-09-28T21:58:54.549Z,99300.72
2022-09-28T22:01:23.278Z,99300.06
2022-09-28T22:03:52.044Z,99300.34
2022-09-28T22:06:20.346Z,99299.34
2022-09-28T22:08:48.002Z,99297.47
2022-09-28T22:11:17.007Z,99309.19
2022-09-28T22:13:46.491Z,99323.66
2022-09-28T22:16:16.940Z,99298.03
2022-09-28T22:18:44.539Z,99309.38
2022-09-28T22:21:14.195Z,99320.13
2022-09-28T22:23:41.347Z,99310.06
2022-09-28T22:26:09.980Z,99286.78
2022-09-28T22:28:37.107Z,99297.47
2022-09-28T22:31:04.444Z,99317.13
2022-09-28T22:33:32.381Z,99190.41
2022-09-28T22:35:58.856Z,99321.97
2022-09-28T22:38:25.459Z,99289.88
2022-09-28T22:40:54.543Z,99316.25
2022-09-28T22:43:22.025Z,99319.63
2022-09-28T22:45:48.646Z,99288.53
2022-09-28T22:48:15.590Z,99321.78
2022-09-28T22:50:50.151Z,99320.78
2022-09-28T22:53:16.967Z,99309.13
2022-09-28T22:55:43.599Z,99321.97
2022-09-28T22:58:10.508Z,99306.03
2022-09-28T23:00:37.152Z,99322.84
2022-09-28T23:03:04.093Z,99315.88
2022-09-28T23:05:30.946Z,99308.88
2022-09-28T23:07:58.942Z,99299.22
2022-09-28T23:10:25.435Z,99322.81
2022-09-28T23:12:53.302Z,99298.03
2022-09-28T23:15:19.797Z,99309.53
2022-09-28T23:17:50.606Z,99286.00
2022-09-28T23:20:17.227Z,99314.91
2022-09-28T23:22:45.813Z,99310.38
2022-09-28T23:25:14.591Z,99318.13
2022-09-28T23:27:45.075Z,99322.81
2022-09-28T23:30:12.165Z,99318.84
2022-09-28T23:32:38.657Z,99319.13
2022-09-28T23:35:06.333Z,99303.75
2022-09-28T23:37:32.887Z,99307.34
2022-09-28T23:39:59.618Z,99320.16
2022-09-28T23:42:27.491Z,99315.88
2022-09-28T23:44:54.115Z,99319.91
2022-09-28T23:47:21.156Z,99316.06
2022-09-28T23:49:47.769Z,99311.94
2022-09-28T23:52:14.279Z,99279.97
2022-09-28T23:54:40.916Z,99306.13
2022-09-28T23:57:07.457Z,99298.59
2022-09-28T23:59:35.375Z,99318.88
